sensor_id;sensor_type;location;lat;lon;timestamp;pressure;altitude;pressure_sealevel;temperature;humidity
14818;BME280;7500;57.698;11.986;2022-12-17T00:02:00;102121.31;;;0.12;100.00
14818;BME280;7500;57.698;11.986;2022-12-17T00:04:45;102116.97;;;0.11;100.00
14818;BME280;7500;57.698;11.986;2022-12-17T00:07:29;102114.38;;;0.09;100.00
14818;BME280;7500;57.698;11.986;2022-12-17T00:10:14;102115.13;;;0.04;100.00
14818;BME280;7500;57.698;11.986;2022-12-17T00:13:00;102126.44;;;0.07;100.00
14818;BME280;7500;57.698;11.986;2022-12-17T00:15:49;102119.56;;;0.11;100.00
14818;BME280;7500;57.698;11.986;2022-12-17T00:18:33;102122.19;;;0.14;100.00
14818;BME280;7500;57.698;11.986;2022-12-17T00:21:18;102113.59;;;0.16;100.00
14818;BME280;7500;57.698;11.986;2022-12-17T00:24:17;102104.84;;;0.08;100.00
14818;BME280;7500;57.698;11.986;2022-12-17T00:27:01;102109.22;;;0.14;100.00
14818;BME280;7500;57.698;11.986;2022-12-17T00:29:46;102097.97;;;0.13;100.00
14818;BME280;7500;57.698;11.986;2022-12-17T00:32:31;102093.69;;;0.17;100.00
14818;BME280;7500;57.698;11.986;2022-12-17T00:35:15;102095.44;;;0.19;100.00
14818;BME280;7500;57.698;11.986;2022-12-17T00:38:00;102094.53;;;0.17;100.00
14818;BME280;7500;57.698;11.986;2022-12-17T00:40:49;102098.03;;;0.18;100.00
14818;BME280;7500;57.698;11.986;2022-12-17T00:43:34;102097.22;;;0.22;100.00
14818;BME280;7500;57.698;11.986;2022-12-17T00:46:20;102097.16;;;0.20;100.00
14818;BME280;7500;57.698;11.986;2022-12-17T00:49:04;102099.81;;;0.23;100.00
14818;BME280;7500;57.698;11.986;2022-12-17T00:51:48;102108.56;;;0.30;100.00
14818;BME280;7500;57.698;11.986;2022-12-17T00:54:33;102107.63;;;0.26;100.00
14818;BME280;7500;57.698;11.986;2022-12-17T00:57:17;102067.66;;;0.12;100.00
14818;BME280;7500;57.698;11.986;2022-12-17T01:00:16;102115.50;;;0.31;100.00
14818;BME280;7500;57.698;11.986;2022-12-17T01:03:06;102117.22;;;0.30;100.00
14818;BME280;7500;57.698;11.986;2022-12-17T01:06:06;102120.66;;;0.28;100.00
14818;BME280;7500;57.698;11.986;2022-12-17T01:08:50;102112.09;;;0.38;100.00
14818;BME280;7500;57.698;11.986;2022-12-17T01:11:35;102124.25;;;0.40;100.00
14818;BME280;7500;57.698;11.986;2022-12-17T01:14:19;102127.72;;;0.41;100.00
14818;BME280;7500;57.698;11.986;2022-12-17T01:17:03;102132.06;;;0.40;100.00
14818;BME280;7500;57.698;11.986;2022-12-17T01:19:49;102116.41;;;0.36;100.00
14818;BME280;7500;57.698;11.986;2022-12-17T01:22:33;102122.53;;;0.41;100.00
14818;BME280;7500;57.698;11.986;2022-12-17T01:25:18;102138.19;;;0.45;100.00
14818;BME280;7500;57.698;11.986;2022-12-17T01:28:03;102147.75;;;0.49;100.00
14818;BME280;7500;57.698;11.986;2022-12-17T01:30:52;102128.66;;;0.46;100.00
14818;BME280;7500;57.698;11.986;2022-12-17T01:33:38;102142.53;;;0.48;100.00
14818;BME280;7500;57.698;11.986;2022-12-17T01:36:24;102137.28;;;0.45;100.00
14818;BME280;7500;57.698;11.986;2022-12-17T01:39:09;102135.53;;;0.44;100.00
14818;BME280;7500;57.698;11.986;2022-12-17T01:41:53;102126.03;;;0.44;100.00
14818;BME280;7500;57.698;11.986;2022-12-17T01:44:47;102120.94;;;0.52;100.00
14818;BME280;7500;57.698;11.986;2022-12-17T01:47:34;102128.72;;;0.52;100.00
14818;BME280;7500;57.698;11.986;2022-12-17T01:50:20;102144.31;;;0.52;100.00
14818;BME280;7500;57.698;11.986;2022-12-17T01:53:08;102133.94;;;0.55;100.00
14818;BME280;7500;57.698;11.986;2022-12-17T01:55:53;102129.56;;;0.52;100.00
14818;BME280;7500;57.698;11.986;2022-12-17T01:58:39;102123.41;;;0.43;100.00
14818;BME280;7500;57.698;11.986;2022-12-17T02:01:24;102128.59;;;0.41;100.00
14818;BME280;7500;57.698;11.986;2022-12-17T02:04:09;102131.16;;;0.40;100.00
14818;BME280;7500;57.698;11.986;2022-12-17T02:07:05;102125.97;;;0.38;100.00
14818;BME280;7500;57.698;11.986;2022-12-17T02:10:04;102133.75;;;0.40;100.00
14818;BME280;7500;57.698;11.986;2022-12-17T02:12:55;102132.09;;;0.45;100.00
14818;BME280;7500;57.698;11.986;2022-12-17T02:15:46;102138.19;;;0.45;100.00
14818;BME280;7500;57.698;11.986;2022-12-17T02:18:35;102137.38;;;0.51;100.00
14818;BME280;7500;57.698;11.986;2022-12-17T02:21:23;102136.47;;;0.49;100.00
14818;BME280;7500;57.698;11.986;2022-12-17T02:24:13;102145.19;;;0.55;100.00
14818;BME280;7500;57.698;11.986;2022-12-17T02:27:05;102132.22;;;0.54;100.00
14818;BME280;7500;57.698;11.986;2022-12-17T02:29:53;102130.47;;;0.54;100.00
14818;BME280;7500;57.698;11.986;2022-12-17T02:32:40;102119.09;;;0.45;100.00
14818;BME280;7500;57.698;11.986;2022-12-17T02:35:39;102124.41;;;0.54;100.00
14818;BME280;7500;57.698;11.986;2022-12-17T02:38:25;102124.38;;;0.49;100.00
14818;BME280;7500;57.698;11.986;2022-12-17T02:41:12;102127.81;;;0.50;100.00
14818;BME280;7500;57.698;11.986;2022-12-17T02:43:59;102131.31;;;0.50;100.00
14818;BME280;7500;57.698;11.986;2022-12-17T02:46:45;102131.25;;;0.46;100.00
14818;BME280;7500;57.698;11.986;2022-12-17T02:49:31;102126.00;;;0.43;100.00
14818;BME280;7500;57.698;11.986;2022-12-17T02:52:17;102126.09;;;0.49;100.00
14818;BME280;7500;57.698;11.986;2022-12-17T02:55:05;102122.47;;;0.38;100.00
14818;BME280;7500;57.698;11.986;2022-12-17T02:57:49;102120.00;;;0.45;100.00
14818;BME280;7500;57.698;11.986;2022-12-17T03:00:35;102114.81;;;0.45;100.00
14818;BME280;7500;57.698;11.986;2022-12-17T03:03:19;102112.06;;;0.35;100.00
14818;BME280;7500;57.698;11.986;2022-12-17T03:06:04;102106.97;;;0.42;100.00
14818;BME280;7500;57.698;11.986;2022-12-17T03:08:48;102105.97;;;0.30;100.00
14818;BME280;7500;57.698;11.986;2022-12-17T03:11:32;102102.56;;;0.37;100.00
14818;BME280;7500;57.698;11.986;2022-12-17T03:14:17;102099.03;;;0.30;100.00
14818;BME280;7500;57.698;11.986;2022-12-17T03:17:03;102101.69;;;0.36;100.00
14818;BME280;7500;57.698;11.986;2022-12-17T03:19:47;102087.00;;;0.38;100.00
14818;BME280;7500;57.698;11.986;2022-12-17T03:22:32;102092.25;;;0.43;100.00
14818;BME280;7500;57.698;11.986;2022-12-17T03:25:16;102078.50;;;0.53;100.00
14818;BME280;7500;57.698;11.986;2022-12-17T03:28:05;102086.25;;;0.51;100.00
14818;BME280;7500;57.698;11.986;2022-12-17T03:30:49;102081.06;;;0.51;100.00
14818;BME280;7500;57.698;11.986;2022-12-17T03:33:35;102079.28;;;0.44;100.00
14818;BME280;7500;57.698;11.986;2022-12-17T03:36:19;102085.41;;;0.49;100.00
14818;BME280;7500;57.698;11.986;2022-12-17T03:39:04;102088.00;;;0.51;100.00
14818;BME280;7500;57.698;11.986;2022-12-17T03:41:48;102083.66;;;0.48;100.00
14818;BME280;7500;57.698;11.986;2022-12-17T03:44:32;102074.16;;;0.50;100.00
14818;BME280;7500;57.698;11.986;2022-12-17T03:47:16;102080.31;;;0.60;100.00
14818;BME280;7500;57.698;11.986;2022-12-17T03:50:02;102078.53;;;0.56;100.00
14818;BME280;7500;57.698;11.986;2022-12-17T03:52:47;102102.00;;;0.62;100.00
14818;BME280;7500;57.698;11.986;2022-12-17T03:55:31;102102.88;;;0.64;100.00
14818;BME280;7500;57.698;11.986;2022-12-17T03:58:16;102112.44;;;0.69;100.00
14818;BME280;7500;57.698;11.986;2022-12-17T04:01:00;102106.38;;;0.66;100.00
14818;BME280;7500;57.698;11.986;2022-12-17T04:03:47;102099.31;;;0.56;100.00
14818;BME280;7500;57.698;11.986;2022-12-17T04:06:33;102114.94;;;0.59;100.00
14818;BME280;7500;57.698;11.986;2022-12-17T04:09:17;102116.66;;;0.57;100.00
14818;BME280;7500;57.698;11.986;2022-12-17T04:12:01;102120.94;;;0.53;100.00
14818;BME280;7500;57.698;11.986;2022-12-17T04:14:46;102128.72;;;0.52;100.00
14818;BME280;7500;57.698;11.986;2022-12-17T04:17:30;102130.69;;;0.74;100.00
14818;BME280;7500;57.698;11.986;2022-12-17T04:20:15;102136.72;;;0.73;100.00
14818;BME280;7500;57.698;11.986;2022-12-17T04:23:01;102122.88;;;0.74;100.00
14818;BME280;7500;57.698;11.986;2022-12-17T04:25:45;102125.53;;;0.80;100.00
14818;BME280;7500;57.698;11.986;2022-12-17T04:28:29;102128.97;;;0.74;100.00
14818;BME280;7500;57.698;11.986;2022-12-17T04:31:14;102132.38;;;0.72;100.00
14818;BME280;7500;57.698;11.986;2022-12-17T04:34:07;102120.41;;;0.86;100.00
14818;BME280;7500;57.698;11.986;2022-12-17T04:36:51;102111.00;;;0.97;100.00
14818;BME280;7500;57.698;11.986;2022-12-17T04:39:37;102108.41;;;1.01;100.00
14818;BME280;7500;57.698;11.986;2022-12-17T04:42:21;102100.56;;;0.95;100.00
14818;BME280;7500;57.698;11.986;2022-12-17T04:45:06;102103.94;;;0.82;100.00
14818;BME280;7500;57.698;11.986;2022-12-17T04:47:50;102096.16;;;0.88;100.00
14818;BME280;7500;57.698;11.986;2022-12-17T04:50:35;102080.72;;;1.05;100.00
14818;BME280;7500;57.698;11.986;2022-12-17T04:53:19;102070.44;;;1.19;100.00
14818;BME280;7500;57.698;11.986;2022-12-17T04:56:05;102077.31;;;1.14;100.00
14818;BME280;7500;57.698;11.986;2022-12-17T04:58:50;102073.06;;;1.24;100.00
14818;BME280;7500;57.698;11.986;2022-12-17T05:01:34;102072.28;;;1.32;100.00
14818;BME280;7500;57.698;11.986;2022-12-17T05:04:19;102060.97;;;1.32;100.00
14818;BME280;7500;57.698;11.986;2022-12-17T05:07:03;102061.88;;;1.38;100.00
14818;BME280;7500;57.698;11.986;2022-12-17T05:09:48;102053.19;;;1.36;100.00
14818;BME280;7500;57.698;11.986;2022-12-17T05:12:34;102060.19;;;1.42;100.00
14818;BME280;7500;57.698;11.986;2022-12-17T05:15:18;102056.78;;;1.50;100.00
14818;BME280;7500;57.698;11.986;2022-12-17T05:18:04;102061.97;;;1.49;100.00
14818;BME280;7500;57.698;11.986;2022-12-17T05:20:48;102061.97;;;1.50;100.00
14818;BME280;7500;57.698;11.986;2022-12-17T05:23:33;102053.25;;;1.42;100.00
14818;BME280;7500;57.698;11.986;2022-12-17T05:26:20;102056.78;;;1.55;100.00
14818;BME280;7500;57.698;11.986;2022-12-17T05:29:05;102057.69;;;1.60;100.00
14818;BME280;7500;57.698;11.986;2022-12-17T05:31:50;102060.28;;;1.58;100.00
14818;BME280;7500;57.698;11.986;2022-12-17T05:34:34;102045.59;;;1.66;100.00
14818;BME280;7500;57.698;11.986;2022-12-17T05:37:19;102049.94;;;1.73;100.00
14818;BME280;7500;57.698;11.986;2022-12-17T05:40:04;102048.25;;;1.81;100.00
14818;BME280;7500;57.698;11.986;2022-12-17T05:42:56;102048.28;;;1.84;100.00
14818;BME280;7500;57.698;11.986;2022-12-17T05:45:43;102039.59;;;1.85;100.00
14818;BME280;7500;57.698;11.986;2022-12-17T05:48:27;102037.88;;;1.87;100.00
14818;BME280;7500;57.698;11.986;2022-12-17T05:51:12;102044.84;;;1.94;100.00
14818;BME280;7500;57.698;11.986;2022-12-17T05:53:56;102028.38;;;2.00;100.00
14818;BME280;7500;57.698;11.986;2022-12-17T05:56:41;102035.31;;;2.05;100.00
14818;BME280;7500;57.698;11.986;2022-12-17T05:59:26;102040.53;;;2.05;100.00
14818;BME280;7500;57.698;11.986;2022-12-17T06:02:08;102041.44;;;2.06;100.00
14818;BME280;7500;57.698;11.986;2022-12-17T06:04:52;102039.69;;;2.09;100.00
14818;BME280;7500;57.698;11.986;2022-12-17T06:07:36;102037.97;;;2.14;100.00
14818;BME280;7500;57.698;11.986;2022-12-17T06:10:21;102034.53;;;2.17;100.00
14818;BME280;7500;57.698;11.986;2022-12-17T06:13:05;102038.00;;;2.17;100.00
14818;BME280;7500;57.698;11.986;2022-12-17T06:15:50;102048.41;;;2.24;100.00
14818;BME280;7500;57.698;11.986;2022-12-17T06:18:36;102044.97;;;2.24;100.00
14818;BME280;7500;57.698;11.986;2022-12-17T06:21:17;102051.06;;;2.33;100.00
14818;BME280;7500;57.698;11.986;2022-12-17T06:24:01;102046.72;;;2.43;100.00
14818;BME280;7500;57.698;11.986;2022-12-17T06:26:45;102045.88;;;2.44;100.00
14818;BME280;7500;57.698;11.986;2022-12-17T06:29:30;102038.06;;;2.50;100.00
14818;BME280;7500;57.698;11.986;2022-12-17T06:32:14;102046.75;;;2.46;100.00
14818;BME280;7500;57.698;11.986;2022-12-17T06:35:00;102031.09;;;2.43;100.00
14818;BME280;7500;57.698;11.986;2022-12-17T06:37:41;102054.59;;;2.55;100.00
14818;BME280;7500;57.698;11.986;2022-12-17T06:40:37;102065.88;;;2.57;100.00
14818;BME280;7500;57.698;11.986;2022-12-17T06:43:21;102057.22;;;2.67;100.00
14818;BME280;7500;57.698;11.986;2022-12-17T06:46:05;102061.56;;;2.72;100.00
14818;BME280;7500;57.698;11.986;2022-12-17T06:48:50;102065.03;;;2.82;100.00
14818;BME280;7500;57.698;11.986;2022-12-17T06:51:36;102061.59;;;2.81;100.00
14818;BME280;7500;57.698;11.986;2022-12-17T06:54:20;102065.06;;;2.86;100.00
14818;BME280;7500;57.698;11.986;2022-12-17T06:57:04;102072.88;;;2.88;100.00
14818;BME280;7500;57.698;11.986;2022-12-17T06:59:49;102061.59;;;2.92;100.00
14818;BME280;7500;57.698;11.986;2022-12-17T07:02:33;102065.94;;;2.93;100.00
14818;BME280;7500;57.698;11.986;2022-12-17T07:05:18;102068.53;;;2.93;100.00
14818;BME280;7500;57.698;11.986;2022-12-17T07:08:04;102066.81;;;2.95;100.00
14818;BME280;7500;57.698;11.986;2022-12-17T07:10:47;102066.78;;;2.93;100.00
14818;BME280;7500;57.698;11.986;2022-12-17T07:13:31;102075.50;;;2.98;100.00
14818;BME280;7500;57.698;11.986;2022-12-17T07:16:16;102075.50;;;2.98;100.00
14818;BME280;7500;57.698;11.986;2022-12-17T07:19:12;102076.38;;;2.96;100.00
14818;BME280;7500;57.698;11.986;2022-12-17T07:21:56;102082.47;;;2.98;100.00
14818;BME280;7500;57.698;11.986;2022-12-17T07:24:42;102091.13;;;2.92;100.00
14818;BME280;7500;57.698;11.986;2022-12-17T07:27:26;102092.00;;;2.93;100.00
14818;BME280;7500;57.698;11.986;2022-12-17T07:30:11;102092.88;;;2.92;100.00
14818;BME280;7500;57.698;11.986;2022-12-17T07:33:00;102107.66;;;2.96;100.00
14818;BME280;7500;57.698;11.986;2022-12-17T07:35:44;102102.44;;;3.00;100.00
14818;BME280;7500;57.698;11.986;2022-12-17T07:38:29;102095.50;;;3.01;100.00
14818;BME280;7500;57.698;11.986;2022-12-17T07:41:17;102091.13;;;2.98;100.00
14818;BME280;7500;57.698;11.986;2022-12-17T07:44:01;102098.09;;;3.07;100.00
14818;BME280;7500;57.698;11.986;2022-12-17T07:46:46;102093.78;;;3.03;100.00
14818;BME280;7500;57.698;11.986;2022-12-17T07:49:30;102082.44;;;2.96;100.00
14818;BME280;7500;57.698;11.986;2022-12-17T07:52:15;102095.50;;;2.98;100.00
14818;BME280;7500;57.698;11.986;2022-12-17T07:54:59;102098.97;;;2.91;100.00
14818;BME280;7500;57.698;11.986;2022-12-17T07:57:45;102099.84;;;2.99;100.00
14818;BME280;7500;57.698;11.986;2022-12-17T08:00:29;102094.63;;;2.96;100.00
14818;BME280;7500;57.698;11.986;2022-12-17T08:03:14;102107.66;;;2.96;100.00
14818;BME280;7500;57.698;11.986;2022-12-17T08:05:58;102114.63;;;2.94;100.00
14818;BME280;7500;57.698;11.986;2022-12-17T08:08:43;102101.56;;;2.95;100.00
14818;BME280;7500;57.698;11.986;2022-12-17T08:11:27;102105.03;;;2.94;100.00
14818;BME280;7500;57.698;11.986;2022-12-17T08:14:13;102104.19;;;3.00;100.00
14818;BME280;7500;57.698;11.986;2022-12-17T08:16:57;102116.34;;;3.13;100.00
14818;BME280;7500;57.698;11.986;2022-12-17T08:19:42;102120.72;;;3.03;100.00
14818;BME280;7500;57.698;11.986;2022-12-17T08:22:26;102115.47;;;3.00;100.00
14818;BME280;7500;57.698;11.986;2022-12-17T08:25:08;102105.94;;;3.02;100.00
14818;BME280;7500;57.698;11.986;2022-12-17T08:27:54;102116.38;;;2.98;100.00
14818;BME280;7500;57.698;11.986;2022-12-17T08:30:41;102123.34;;;3.02;100.00
14818;BME280;7500;57.698;11.986;2022-12-17T08:33:25;102109.44;;;3.06;100.00
14818;BME280;7500;57.698;11.986;2022-12-17T08:36:09;102120.72;;;3.11;100.00
14818;BME280;7500;57.698;11.986;2022-12-17T08:39:08;102124.19;;;3.08;100.00
14818;BME280;7500;57.698;11.986;2022-12-17T08:41:51;102120.69;;;3.08;100.00
14818;BME280;7500;57.698;11.986;2022-12-17T08:44:35;102127.69;;;3.16;100.00
14818;BME280;7500;57.698;11.986;2022-12-17T08:47:21;102132.03;;;3.28;100.00
14818;BME280;7500;57.698;11.986;2022-12-17T08:50:07;102136.38;;;3.29;100.00
14818;BME280;7500;57.698;11.986;2022-12-17T08:52:56;102145.97;;;3.30;100.00
14818;BME280;7500;57.698;11.986;2022-12-17T08:55:41;102147.69;;;3.51;100.00
14818;BME280;7500;57.698;11.986;2022-12-17T08:58:25;102153.78;;;3.49;100.00
14818;BME280;7500;57.698;11.986;2022-12-17T09:01:10;102150.28;;;3.45;100.00
14818;BME280;7500;57.698;11.986;2022-12-17T09:03:56;102156.38;;;3.50;100.00
14818;BME280;7500;57.698;11.986;2022-12-17T09:06:40;102156.38;;;3.53;100.00
14818;BME280;7500;57.698;11.986;2022-12-17T09:09:25;102155.53;;;3.56;100.00
14818;BME280;7500;57.698;11.986;2022-12-17T09:12:09;102148.56;;;3.55;100.00
14818;BME280;7500;57.698;11.986;2022-12-17T09:14:53;102152.03;;;3.63;100.00
14818;BME280;7500;57.698;11.986;2022-12-17T09:17:38;102149.41;;;3.75;100.00
14818;BME280;7500;57.698;11.986;2022-12-17T09:20:24;102151.13;;;3.80;100.00
14818;BME280;7500;57.698;11.986;2022-12-17T09:23:08;102145.91;;;3.83;100.00
14818;BME280;7500;57.698;11.986;2022-12-17T09:25:53;102149.38;;;3.82;100.00
14818;BME280;7500;57.698;11.986;2022-12-17T09:28:38;102143.28;;;3.91;100.00
14818;BME280;7500;57.698;11.986;2022-12-17T09:31:23;102145.88;;;3.92;100.00
14818;BME280;7500;57.698;11.986;2022-12-17T09:34:16;102148.47;;;3.94;100.00
14818;BME280;7500;57.698;11.986;2022-12-17T09:37:02;102151.09;;;3.95;100.00
14818;BME280;7500;57.698;11.986;2022-12-17T09:39:46;102144.13;;;4.00;100.00
14818;BME280;7500;57.698;11.986;2022-12-17T09:42:36;102141.50;;;4.05;100.00
14818;BME280;7500;57.698;11.986;2022-12-17T09:45:24;102152.84;;;3.99;100.00
14818;BME280;7500;57.698;11.986;2022-12-17T09:48:18;102144.13;;;4.00;100.00
14818;BME280;7500;57.698;11.986;2022-12-17T09:51:18;102151.09;;;4.07;100.00
14818;BME280;7500;57.698;11.986;2022-12-17T09:54:05;102161.50;;;4.13;100.00
14818;BME280;7500;57.698;11.986;2022-12-17T09:56:55;102160.63;;;4.08;100.00
14818;BME280;7500;57.698;11.986;2022-12-17T09:59:40;102162.38;;;4.20;100.00
14818;BME280;7500;57.698;11.986;2022-12-17T10:02:27;102159.75;;;4.23;100.00
14818;BME280;7500;57.698;11.986;2022-12-17T10:05:15;102147.53;;;4.23;100.00
14818;BME280;7500;57.698;11.986;2022-12-17T10:08:03;102149.28;;;4.27;100.00
14818;BME280;7500;57.698;11.986;2022-12-17T10:10:51;102137.94;;;4.28;100.00
14818;BME280;7500;57.698;11.986;2022-12-17T10:13:35;102144.03;;;4.27;100.00
14818;BME280;7500;57.698;11.986;2022-12-17T10:16:24;102148.38;;;4.30;100.00
14818;BME280;7500;57.698;11.986;2022-12-17T10:19:13;102146.63;;;4.32;100.00
14818;BME280;7500;57.698;11.986;2022-12-17T10:22:08;102162.31;;;4.32;100.00
14818;BME280;7500;57.698;11.986;2022-12-17T10:24:53;102146.63;;;4.32;100.00
14818;BME280;7500;57.698;11.986;2022-12-17T10:27:39;102157.09;;;4.39;100.00
14818;BME280;7500;57.698;11.986;2022-12-17T10:30:20;102168.38;;;4.45;100.00
14818;BME280;7500;57.698;11.986;2022-12-17T10:33:05;102181.47;;;4.40;100.00
14818;BME280;7500;57.698;11.986;2022-12-17T10:35:50;102148.38;;;4.34;100.00
14818;BME280;7500;57.698;11.986;2022-12-17T10:38:35;102173.63;;;4.40;100.00
14818;BME280;7500;57.698;11.986;2022-12-17T10:41:23;102155.34;;;4.41;100.00
14818;BME280;7500;57.698;11.986;2022-12-17T10:44:26;102149.25;;;4.39;100.00
14818;BME280;7500;57.698;11.986;2022-12-17T10:47:12;102155.34;;;4.35;100.00
14818;BME280;7500;57.698;11.986;2022-12-17T10:49:58;102157.94;;;4.40;100.00
14818;BME280;7500;57.698;11.986;2022-12-17T10:52:44;102159.72;;;4.27;100.00
14818;BME280;7500;57.698;11.986;2022-12-17T10:55:30;102148.44;;;4.21;100.00
14818;BME280;7500;57.698;11.986;2022-12-17T10:58:18;102161.44;;;4.37;100.00
14818;BME280;7500;57.698;11.986;2022-12-17T11:01:05;102145.75;;;4.40;100.00
14818;BME280;7500;57.698;11.986;2022-12-17T11:03:51;102147.44;;;4.47;100.00
14818;BME280;7500;57.698;11.986;2022-12-17T11:06:35;102146.50;;;4.60;100.00
14818;BME280;7500;57.698;11.986;2022-12-17T11:09:29;102141.28;;;4.57;100.00
14818;BME280;7500;57.698;11.986;2022-12-17T11:12:16;102149.09;;;4.61;100.00
14818;BME280;7500;57.698;11.986;2022-12-17T11:15:05;102150.03;;;4.51;100.00
14818;BME280;7500;57.698;11.986;2022-12-17T11:17:53;102172.72;;;4.48;100.00
14818;BME280;7500;57.698;11.986;2022-12-17T11:20:45;102166.63;;;4.46;100.00
14818;BME280;7500;57.698;11.986;2022-12-17T11:23:32;102164.81;;;4.57;100.00
14818;BME280;7500;57.698;11.986;2022-12-17T11:26:35;102167.41;;;4.61;100.00
14818;BME280;7500;57.698;11.986;2022-12-17T11:29:20;102163.09;;;4.53;100.00
14818;BME280;7500;57.698;11.986;2022-12-17T11:35:44;102163.97;;;4.56;100.00
14818;BME280;7500;57.698;11.986;2022-12-17T11:38:36;102178.75;;;4.65;100.00
14818;BME280;7500;57.698;11.986;2022-12-17T11:41:27;102170.06;;;4.60;100.00
14818;BME280;7500;57.698;11.986;2022-12-17T11:44:29;102173.56;;;4.53;100.00
14818;BME280;7500;57.698;11.986;2022-12-17T11:47:24;102177.00;;;4.59;100.00
14818;BME280;7500;57.698;11.986;2022-12-17T11:50:20;102171.81;;;4.58;100.00
14818;BME280;7500;57.698;11.986;2022-12-17T11:53:18;102177.00;;;4.64;100.00
14818;BME280;7500;57.698;11.986;2022-12-17T11:56:11;102171.78;;;4.64;100.00
14818;BME280;7500;57.698;11.986;2022-12-17T11:59:03;102171.81;;;4.56;100.00
14818;BME280;7500;57.698;11.986;2022-12-17T12:02:00;102175.25;;;4.66;100.00
14818;BME280;7500;57.698;11.986;2022-12-17T12:05:02;102160.41;;;4.71;100.00
14818;BME280;7500;57.698;11.986;2022-12-17T12:07:55;102161.31;;;4.62;100.00
14818;BME280;7500;57.698;11.986;2022-12-17T12:10:51;102156.06;;;4.67;100.00
14818;BME280;7500;57.698;11.986;2022-12-17T12:13:45;102170.03;;;4.66;100.00
14818;BME280;7500;57.698;11.986;2022-12-17T12:16:39;102175.28;;;4.60;100.00
14818;BME280;7500;57.698;11.986;2022-12-17T12:19:33;102171.78;;;4.64;100.00
14818;BME280;7500;57.698;11.986;2022-12-17T12:22:27;102177.84;;;4.70;100.00
14818;BME280;7500;57.698;11.986;2022-12-17T12:25:21;102178.75;;;4.68;100.00
14818;BME280;7500;57.698;11.986;2022-12-17T12:28:18;102181.34;;;4.66;100.00
14818;BME280;7500;57.698;11.986;2022-12-17T12:31:10;102182.25;;;4.61;100.00
14818;BME280;7500;57.698;11.986;2022-12-17T12:33:59;102197.94;;;4.64;100.00
14818;BME280;7500;57.698;11.986;2022-12-17T12:36:46;102178.81;;;4.44;100.00
14818;BME280;7500;57.698;11.986;2022-12-17T12:39:48;102204.91;;;4.65;100.00
14818;BME280;7500;57.698;11.986;2022-12-17T12:42:40;102200.59;;;4.56;100.00
14818;BME280;7500;57.698;11.986;2022-12-17T12:45:39;102198.78;;;4.66;100.00
14818;BME280;7500;57.698;11.986;2022-12-17T12:48:38;102195.31;;;4.62;100.00
14818;BME280;7500;57.698;11.986;2022-12-17T12:51:27;102171.00;;;4.45;100.00
14818;BME280;7500;57.698;11.986;2022-12-17T12:54:27;102197.91;;;4.67;100.00
14818;BME280;7500;57.698;11.986;2022-12-17T12:57:29;102194.44;;;4.68;100.00
14818;BME280;7500;57.698;11.986;2022-12-17T13:00:26;102198.75;;;4.70;100.00
14818;BME280;7500;57.698;11.986;2022-12-17T13:03:25;102197.91;;;4.70;100.00
14818;BME280;7500;57.698;11.986;2022-12-17T13:06:10;102204.00;;;4.73;100.00
14818;BME280;7500;57.698;11.986;2022-12-17T13:08:39;102204.91;;;4.65;100.00
14818;BME280;7500;57.698;11.986;2022-12-17T13:11:25;102190.94;;;4.72;100.00
14818;BME280;7500;57.698;11.986;2022-12-17T13:13:54;102207.50;;;4.68;100.00
14818;BME280;7500;57.698;11.986;2022-12-17T13:16:31;102201.41;;;4.64;100.00
14818;BME280;7500;57.698;11.986;2022-12-17T13:19:17;102192.69;;;4.59;100.00
14818;BME280;7500;57.698;11.986;2022-12-17T13:21:45;102210.16;;;4.62;100.00
14818;BME280;7500;57.698;11.986;2022-12-17T13:24:22;102190.09;;;4.61;100.00
14818;BME280;7500;57.698;11.986;2022-12-17T13:26:50;102183.13;;;4.63;100.00
14818;BME280;7500;57.698;11.986;2022-12-17T13:29:27;102190.00;;;4.76;100.00
14818;BME280;7500;57.698;11.986;2022-12-17T13:32:02;102186.56;;;4.72;100.00
14818;BME280;7500;57.698;11.986;2022-12-17T13:34:41;102190.00;;;4.79;100.00
14818;BME280;7500;57.698;11.986;2022-12-17T13:37:19;102188.25;;;4.81;100.00
14818;BME280;7500;57.698;11.986;2022-12-17T13:39:58;102190.84;;;4.81;100.00
14818;BME280;7500;57.698;11.986;2022-12-17T13:42:30;102196.09;;;4.81;100.00
14818;BME280;7500;57.698;11.986;2022-12-17T13:44:59;102199.59;;;4.77;100.00
14818;BME280;7500;57.698;11.986;2022-12-17T13:47:28;102196.13;;;4.79;100.00
14818;BME280;7500;57.698;11.986;2022-12-17T13:49:59;102196.13;;;4.73;100.00
14818;BME280;7500;57.698;11.986;2022-12-17T13:52:28;102188.22;;;4.84;100.00
14818;BME280;7500;57.698;11.986;2022-12-17T13:55:06;102197.78;;;4.91;100.00
14818;BME280;7500;57.698;11.986;2022-12-17T13:57:35;102206.53;;;4.90;100.00
14818;BME280;7500;57.698;11.986;2022-12-17T14:00:03;102204.75;;;4.95;100.00
14818;BME280;7500;57.698;11.986;2022-12-17T14:02:31;102205.59;;;4.95;100.00
14818;BME280;7500;57.698;11.986;2022-12-17T14:05:03;102217.88;;;4.89;100.00
14818;BME280;7500;57.698;11.986;2022-12-17T14:07:33;102191.72;;;4.84;100.00
14818;BME280;7500;57.698;11.986;2022-12-17T14:10:01;102203.06;;;4.79;100.00
14818;BME280;7500;57.698;11.986;2022-12-17T14:12:30;102203.16;;;4.70;100.00
14818;BME280;7500;57.698;11.986;2022-12-17T14:15:01;102201.38;;;4.75;100.00
14818;BME280;7500;57.698;11.986;2022-12-17T14:17:34;102204.81;;;4.77;100.00
14818;BME280;7500;57.698;11.986;2022-12-17T14:20:05;102198.75;;;4.76;100.00
14818;BME280;7500;57.698;11.986;2022-12-17T14:22:35;102206.53;;;4.87;100.00
14818;BME280;7500;57.698;11.986;2022-12-17T14:25:05;102207.38;;;4.95;100.00
14818;BME280;7500;57.698;11.986;2022-12-17T14:27:51;102209.06;;;5.00;100.00
14818;BME280;7500;57.698;11.986;2022-12-17T14:30:21;102212.56;;;5.01;100.00